Time;durP1;ratioP1;P1;durP2;ratioP2;P2;SDS_P1;SDS_P2;PMS_P1;PMS_P2;Temp;Humidity;BMP_temperature;BMP_pressure;BME280_temperature;BME280_humidity;BME280_pressure;Samples;Min_cycle;Max_cycle;Signal;HPM_P1;HPM_P2
2021/01/14 00:02:16;;;;;;;1.92;0.80;;;18.80;53.40;;;;;;5114522;28;20032;-76
2021/01/14 00:04:42;;;;;;;2.38;0.90;;;18.80;53.30;;;;;;5114133;28;20012;-77
2021/01/14 00:07:08;;;;;;;1.88;0.80;;;18.70;53.30;;;;;;5096138;28;20038;-76
2021/01/14 00:09:33;;;;;;;1.60;0.80;;;18.70;53.20;;;;;;5113830;28;20411;-76
2021/01/14 00:11:59;;;;;;;1.80;1.08;;;18.60;53.30;;;;;;5114360;28;20031;-76
2021/01/14 00:14:25;;;;;;;2.25;0.82;;;18.60;53.30;;;;;;5113934;28;20033;-76
2021/01/14 00:16:50;;;;;;;1.50;0.80;;;18.60;53.30;;;;;;5113969;28;20020;-75
2021/01/14 00:19:16;;;;;;;2.42;1.15;;;18.50;53.20;;;;;;5114131;28;20057;-78
2021/01/14 00:21:45;;;;;;;2.33;0.70;;;18.50;53.30;;;;;;5113887;28;20072;-79
2021/01/14 00:24:11;;;;;;;1.13;0.70;;;18.50;53.80;;;;;;5114792;27;20031;-76
2021/01/14 00:26:37;;;;;;;1.70;0.90;;;18.40;53.80;;;;;;5113029;28;20383;-76
2021/01/14 00:29:03;;;;;;;1.63;0.65;;;18.40;53.30;;;;;;5112978;28;20039;-79
2021/01/14 00:31:29;;;;;;;1.75;0.80;;;18.30;53.20;;;;;;5114044;28;20036;-78
2021/01/14 00:33:56;;;;;;;0.95;0.80;;;18.30;53.20;;;;;;5095130;28;20110;-77
2021/01/14 00:36:32;;;;;;;2.55;0.95;;;18.30;53.30;;;;;;5113748;28;20359;-78
2021/01/14 00:39:00;;;;;;;1.77;0.57;;;18.20;53.30;;;;;;5113739;28;20020;-78
2021/01/14 00:41:26;;;;;;;1.45;0.60;;;18.20;53.30;;;;;;5095061;28;20410;-77
2021/01/14 00:43:52;;;;;;;2.00;0.80;;;18.10;53.30;;;;;;5112729;28;20141;-79
2021/01/14 00:46:20;;;;;;;2.88;0.80;;;18.10;53.30;;;;;;5113066;28;20474;-79
2021/01/14 00:48:46;;;;;;;1.42;0.77;;;18.10;53.30;;;;;;5113408;28;20424;-79
2021/01/14 00:51:15;;;;;;;1.20;0.80;;;18.10;53.30;;;;;;5113280;28;20434;-79
2021/01/14 00:53:41;;;;;;;1.27;0.70;;;18.00;53.30;;;;;;5111591;28;20035;-79
2021/01/14 00:56:06;;;;;;;1.45;0.70;;;18.00;53.30;;;;;;5113095;28;20036;-75
2021/01/14 00:58:35;;;;;;;1.20;0.60;;;18.00;53.30;;;;;;5094364;28;20023;-77
2021/01/14 01:01:01;;;;;;;1.70;0.80;;;17.90;53.30;;;;;;5113203;28;20023;-75
2021/01/14 01:03:27;;;;;;;1.80;0.80;;;17.90;53.90;;;;;;5113245;28;20475;-75
2021/01/14 01:05:52;;;;;;;1.50;0.70;;;17.90;53.40;;;;;;5113004;28;20039;-76
2021/01/14 01:08:18;;;;;;;1.95;0.70;;;17.90;53.40;;;;;;5113313;28;20566;-79
2021/01/14 01:10:44;;;;;;;0.80;0.60;;;17.80;53.40;;;;;;5112183;28;20081;-79
2021/01/14 01:13:09;;;;;;;1.33;0.60;;;17.80;53.40;;;;;;5112463;28;20098;-79
2021/01/14 01:15:35;;;;;;;1.27;0.70;;;17.80;53.40;;;;;;5094295;28;20024;-79
2021/01/14 01:18:01;;;;;;;1.35;0.70;;;17.70;53.40;;;;;;5112890;28;20069;-78
2021/01/14 01:20:26;;;;;;;1.48;0.80;;;17.70;53.40;;;;;;5112867;28;20063;-76
2021/01/14 01:22:54;;;;;;;3.00;1.55;;;17.70;53.40;;;;;;5112189;28;20077;-76
2021/01/14 01:25:20;;;;;;;2.22;0.98;;;17.60;53.40;;;;;;5112969;28;20463;-76
2021/01/14 01:27:46;;;;;;;1.42;0.70;;;17.60;53.40;;;;;;5112460;28;20024;-77
2021/01/14 01:30:12;;;;;;;2.13;0.90;;;17.60;53.40;;;;;;5107954;28;20054;-75
2021/01/14 01:32:37;;;;;;;1.92;1.00;;;17.50;53.40;;;;;;5112532;28;20103;-75
2021/01/14 01:35:04;;;;;;;1.35;0.93;;;17.60;53.40;;;;;;5112313;28;20098;-76
2021/01/14 01:37:30;;;;;;;1.55;0.70;;;17.50;53.40;;;;;;5112456;28;20034;-75
2021/01/14 01:39:55;;;;;;;1.50;0.80;;;17.50;53.50;;;;;;5111551;28;20027;-77
2021/01/14 01:42:21;;;;;;;1.48;0.90;;;17.50;53.50;;;;;;5112521;28;20483;-77
2021/01/14 01:44:47;;;;;;;1.63;0.88;;;17.40;53.40;;;;;;5111856;28;20102;-77
2021/01/14 01:47:12;;;;;;;3.17;0.93;;;17.40;53.40;;;;;;5111803;28;20494;-77
2021/01/14 01:49:39;;;;;;;1.80;0.75;;;17.40;53.40;;;;;;5111697;28;20028;-78
2021/01/14 01:52:06;;;;;;;1.42;0.88;;;17.30;53.40;;;;;;5093970;28;20023;-76
2021/01/14 01:54:33;;;;;;;1.50;0.80;;;17.30;53.50;;;;;;5111306;28;20468;-76
2021/01/14 01:57:03;;;;;;;1.92;0.80;;;17.30;53.40;;;;;;5112125;28;20039;-77
2021/01/14 01:59:33;;;;;;;1.65;0.70;;;17.30;53.50;;;;;;5111775;28;20023;-77
2021/01/14 02:02:19;;;;;;;1.40;0.80;;;17.30;53.50;;;;;;5111547;28;20395;-76
2021/01/14 02:04:44;;;;;;;2.08;0.90;;;17.20;53.50;;;;;;5110730;28;20170;-76
2021/01/14 02:07:13;;;;;;;2.13;0.80;;;17.20;53.40;;;;;;5112140;28;20510;-77
2021/01/14 02:09:42;;;;;;;2.47;1.13;;;17.20;53.50;;;;;;5111053;28;20475;-76
2021/01/14 02:12:08;;;;;;;1.77;0.93;;;17.20;53.50;;;;;;5111573;28;20031;-77
2021/01/14 02:14:36;;;;;;;2.33;0.82;;;17.10;53.40;;;;;;5111342;28;20080;-77
2021/01/14 02:17:03;;;;;;;1.88;0.90;;;17.10;53.50;;;;;;5111467;28;20050;-76
2021/01/14 02:19:44;;;;;;;1.88;0.80;;;17.10;53.50;;;;;;5111364;28;20019;-76
2021/01/14 02:22:24;;;;;;;1.48;0.60;;;17.10;53.50;;;;;;5111981;28;20027;-76
2021/01/14 02:25:01;;;;;;;1.50;0.80;;;17.00;53.50;;;;;;5111287;28;20065;-76
2021/01/14 02:27:27;;;;;;;2.05;0.85;;;17.00;53.50;;;;;;5110905;28;20069;-76
2021/01/14 02:29:55;;;;;;;1.33;0.80;;;17.00;53.50;;;;;;5111058;28;20069;-76
2021/01/14 02:32:21;;;;;;;3.58;1.08;;;17.00;53.50;;;;;;5111722;28;20023;-76
2021/01/14 02:34:50;;;;;;;1.63;0.75;;;17.00;53.60;;;;;;5110845;28;20019;-75
2021/01/14 02:37:15;;;;;;;3.08;1.17;;;17.00;54.20;;;;;;5091157;28;20032;-76
2021/01/14 02:39:41;;;;;;;1.52;0.90;;;16.90;53.60;;;;;;5111157;28;20529;-76
2021/01/14 02:42:06;;;;;;;1.80;0.90;;;16.90;53.60;;;;;;5111723;28;20020;-75
2021/01/14 02:44:32;;;;;;;1.77;0.93;;;16.90;53.60;;;;;;5110497;28;20023;-76
2021/01/14 02:46:59;;;;;;;1.75;0.82;;;16.90;53.60;;;;;;5110979;28;20089;-81
2021/01/14 02:49:27;;;;;;;2.15;0.90;;;16.80;53.60;;;;;;5111079;28;20028;-77
2021/01/14 02:51:59;;;;;;;1.52;0.68;;;16.80;53.60;;;;;;5110599;28;20441;-78
2021/01/14 02:54:25;;;;;;;1.70;0.90;;;16.80;53.60;;;;;;5110746;28;20027;-79
2021/01/14 02:56:51;;;;;;;2.25;0.93;;;16.80;53.60;;;;;;5092442;28;20504;-80
2021/01/14 02:59:17;;;;;;;1.30;0.60;;;16.80;53.60;;;;;;5111497;28;20059;-79
2021/01/14 03:01:43;;;;;;;1.70;0.70;;;16.80;53.60;;;;;;5110420;28;20030;-77
2021/01/14 03:04:09;;;;;;;1.65;0.63;;;16.70;53.60;;;;;;5111052;28;20031;-78
2021/01/14 03:06:35;;;;;;;1.45;0.80;;;16.70;53.60;;;;;;5110965;28;20024;-79
2021/01/14 03:09:01;;;;;;;1.75;0.70;;;16.70;53.60;;;;;;5093092;28;20023;-78
2021/01/14 03:11:28;;;;;;;1.23;0.60;;;16.70;53.60;;;;;;5093052;28;20548;-79
2021/01/14 03:13:54;;;;;;;1.35;0.68;;;16.70;53.70;;;;;;5092381;28;20047;-79
2021/01/14 03:16:20;;;;;;;1.35;0.70;;;16.70;53.70;;;;;;5112266;28;20030;-79
2021/01/14 03:18:48;;;;;;;1.10;0.60;;;16.60;53.60;;;;;;5114751;28;20023;-78
2021/01/14 03:21:20;;;;;;;1.00;0.65;;;16.60;53.60;;;;;;5096704;28;20027;-78
2021/01/14 03:23:47;;;;;;;1.00;0.60;;;16.60;53.60;;;;;;5115123;28;20020;-78
2021/01/14 03:26:14;;;;;;;1.35;0.70;;;16.60;53.70;;;;;;5115146;28;20027;-79
2021/01/14 03:28:40;;;;;;;1.45;0.70;;;16.60;53.70;;;;;;5114659;28;20027;-79
2021/01/14 03:31:05;;;;;;;1.58;0.82;;;16.60;53.70;;;;;;5114891;28;20081;-78
2021/01/14 03:33:31;;;;;;;2.08;0.80;;;16.60;53.70;;;;;;5114867;28;20407;-78
2021/01/14 03:35:57;;;;;;;1.33;0.80;;;16.50;53.70;;;;;;5115185;28;20119;-80
2021/01/14 03:38:23;;;;;;;1.73;0.80;;;16.50;53.70;;;;;;5115095;28;20069;-79
2021/01/14 03:40:48;;;;;;;1.58;0.60;;;16.50;53.70;;;;;;5113614;28;20072;-79
2021/01/14 03:43:14;;;;;;;1.23;0.80;;;16.50;53.70;;;;;;5114584;28;20045;-75
2021/01/14 03:45:39;;;;;;;0.55;0.50;;;16.50;53.80;;;;;;5113907;28;20375;-74
2021/01/14 03:48:06;;;;;;;1.23;0.68;;;16.50;53.80;;;;;;5114235;28;20104;-74
2021/01/14 03:50:32;;;;;;;2.25;0.80;;;16.50;53.80;;;;;;5114398;28;20046;-76
2021/01/14 03:52:57;;;;;;;1.38;0.75;;;16.40;53.80;;;;;;5114337;28;20015;-76
2021/01/14 03:55:25;;;;;;;1.23;0.60;;;16.40;53.80;;;;;;5113840;28;20035;-77
2021/01/14 03:57:50;;;;;;;1.70;0.70;;;16.40;53.80;;;;;;5114316;28;20020;-76
2021/01/14 04:00:16;;;;;;;1.25;0.60;;;16.40;53.80;;;;;;5114126;28;20039;-75
2021/01/14 04:02:42;;;;;;;1.88;0.85;;;16.40;53.80;;;;;;5114372;28;20027;-79
2021/01/14 04:05:09;;;;;;;1.63;0.60;;;16.40;53.80;;;;;;5113700;28;20568;-78
2021/01/14 04:07:34;;;;;;;2.25;0.80;;;16.40;53.80;;;;;;5113409;28;20032;-79
2021/01/14 04:10:01;;;;;;;1.33;1.10;;;16.40;53.80;;;;;;5114549;28;20027;-77
2021/01/14 04:12:28;;;;;;;1.55;0.70;;;16.40;53.90;;;;;;5114621;28;20044;-79
2021/01/14 04:14:55;;;;;;;0.98;0.70;;;16.40;53.90;;;;;;5113463;28;20024;-79
2021/01/14 04:17:20;;;;;;;1.77;0.80;;;16.40;53.90;;;;;;5114303;28;20027;-79
2021/01/14 04:19:46;;;;;;;1.92;0.80;;;16.40;53.90;;;;;;5113051;28;20020;-79
2021/01/14 04:22:14;;;;;;;1.23;0.70;;;16.30;53.90;;;;;;5113801;28;20015;-79
2021/01/14 04:24:40;;;;;;;1.48;0.70;;;16.30;53.90;;;;;;5113383;28;20506;-79
2021/01/14 04:27:06;;;;;;;0.85;0.60;;;16.30;54.00;;;;;;5113951;28;20063;-75
2021/01/14 04:29:33;;;;;;;1.75;0.77;;;16.30;54.00;;;;;;5113403;28;20503;-75
2021/01/14 04:31:58;;;;;;;1.13;0.60;;;16.30;54.00;;;;;;5113649;28;20114;-76
2021/01/14 04:34:24;;;;;;;1.20;0.68;;;16.30;54.00;;;;;;5113043;28;20068;-78
2021/01/14 04:37:01;;;;;;;1.65;0.80;;;16.20;53.90;;;;;;5113019;28;20102;-76
2021/01/14 04:39:28;;;;;;;1.40;0.77;;;16.20;53.90;;;;;;5113684;28;20483;-77
2021/01/14 04:41:59;;;;;;;1.17;0.82;;;16.20;53.90;;;;;;5113100;28;20023;-77
2021/01/14 04:44:26;;;;;;;1.15;0.75;;;16.20;54.00;;;;;;5113405;28;20062;-77
2021/01/14 04:47:09;;;;;;;1.98;0.88;;;16.20;54.00;;;;;;5112957;28;20446;-76
2021/01/14 04:49:35;;;;;;;1.45;1.02;;;16.20;54.00;;;;;;5112565;28;20027;-74
2021/01/14 04:52:04;;;;;;;1.50;1.00;;;16.20;54.00;;;;;;5113288;28;20042;-78
2021/01/14 04:54:36;;;;;;;2.28;1.10;;;16.20;54.10;;;;;;5113040;28;20020;-78
2021/01/14 04:57:21;;;;;;;1.05;0.80;;;16.20;54.00;;;;;;5113199;28;20035;-77
2021/01/14 04:59:51;;;;;;;1.70;0.90;;;16.10;54.00;;;;;;5112991;28;20043;-77
2021/01/14 05:02:26;;;;;;;2.03;1.17;;;16.20;54.10;;;;;;5112929;28;20503;-78
2021/01/14 05:04:53;;;;;;;1.60;1.10;;;16.10;54.10;;;;;;5112468;28;20038;-78
2021/01/14 05:07:32;;;;;;;2.28;1.30;;;16.10;54.10;;;;;;5113364;28;20098;-77
2021/01/14 05:10:06;;;;;;;2.03;1.20;;;16.10;54.10;;;;;;5113307;28;20024;-78
2021/01/14 05:12:33;;;;;;;1.45;1.02;;;16.10;54.10;;;;;;5113571;28;20031;-75
2021/01/14 05:15:00;;;;;;;1.67;1.08;;;16.10;54.20;;;;;;5112961;28;20399;-77
2021/01/14 05:17:27;;;;;;;1.35;0.95;;;16.00;54.10;;;;;;5112926;28;20118;-76
2021/01/14 05:19:56;;;;;;;1.73;1.15;;;16.10;54.70;;;;;;5111899;28;20020;-77
2021/01/14 05:22:25;;;;;;;1.63;1.02;;;16.10;54.70;;;;;;5113301;28;20481;-77
2021/01/14 05:25:04;;;;;;;2.00;1.05;;;16.10;54.20;;;;;;5112345;28;20030;-78
2021/01/14 05:27:30;;;;;;;1.67;1.08;;;16.00;54.10;;;;;;5112924;28;20027;-78
2021/01/14 05:30:10;;;;;;;2.60;1.20;;;16.00;54.20;;;;;;5112251;28;20411;-78
2021/01/14 05:32:41;;;;;;;1.98;1.27;;;16.00;54.10;;;;;;5112299;28;20030;-79
2021/01/14 05:35:09;;;;;;;1.70;1.10;;;16.00;54.20;;;;;;5093707;28;20028;-78
2021/01/14 05:37:37;;;;;;;1.90;1.20;;;16.00;54.20;;;;;;5112408;28;20461;-78
2021/01/14 05:40:07;;;;;;;2.10;1.13;;;16.00;54.20;;;;;;5111829;28;20173;-76
2021/01/14 05:42:32;;;;;;;2.45;1.35;;;16.00;54.20;;;;;;5111981;28;20039;-78
2021/01/14 05:44:59;;;;;;;1.73;1.40;;;16.00;54.20;;;;;;5112267;28;20020;-78
2021/01/14 05:47:27;;;;;;;2.30;1.38;;;15.90;54.20;;;;;;5112306;28;20490;-78
2021/01/14 05:50:05;;;;;;;1.95;1.23;;;15.90;54.20;;;;;;5112145;28;20028;-79
2021/01/14 05:52:32;;;;;;;2.65;1.40;;;16.00;54.30;;;;;;5112771;28;20373;-79
2021/01/14 05:55:09;;;;;;;2.15;1.17;;;15.90;54.30;;;;;;5111171;28;20020;-79
2021/01/14 05:57:40;;;;;;;2.53;1.52;;;15.90;54.20;;;;;;5111837;28;20034;-80
2021/01/14 06:00:15;;;;;;;1.88;1.10;;;15.90;54.20;;;;;;5111564;28;20059;-78
2021/01/14 06:02:41;;;;;;;3.30;1.10;;;16.00;54.30;;;;;;5111158;28;20032;-80
2021/01/14 06:05:32;;;;;;;3.55;0.90;;;16.00;54.10;;;;;;5111384;28;20486;-79
2021/01/14 06:08:01;;;;;;;1.77;0.85;;;16.10;54.20;;;;;;5111825;28;20476;-80
2021/01/14 06:10:32;;;;;;;1.58;0.90;;;16.10;54.20;;;;;;5094701;28;20051;-81
2021/01/14 06:12:57;;;;;;;1.92;0.80;;;16.10;54.10;;;;;;5112308;28;20372;-81
2021/01/14 06:15:23;;;;;;;1.65;0.70;;;16.20;54.10;;;;;;5111972;28;20019;-80
2021/01/14 06:17:49;;;;;;;1.70;0.93;;;16.20;54.10;;;;;;5111929;28;20039;-81
2021/01/14 06:20:15;;;;;;;1.55;0.70;;;16.30;54.10;;;;;;5111242;28;20028;-81
2021/01/14 06:22:44;;;;;;;1.08;0.80;;;16.40;54.10;;;;;;5111575;28;20597;-80
2021/01/14 06:25:10;;;;;;;2.05;1.00;;;16.40;54.40;;;;;;5111494;28;20019;-82
2021/01/14 06:27:37;;;;;;;2.40;0.85;;;16.50;54.20;;;;;;5111332;28;20050;-81
2021/01/14 06:30:08;;;;;;;1.45;0.77;;;16.60;54.20;;;;;;5097818;28;20019;-80
2021/01/14 06:32:37;;;;;;;2.05;0.90;;;16.60;54.20;;;;;;5111378;28;20111;-80
2021/01/14 06:35:04;;;;;;;7.10;1.10;;;16.70;54.20;;;;;;5110862;28;20103;-77
2021/01/14 06:37:36;;;;;;;1.75;0.90;;;16.70;54.80;;;;;;5111331;28;20031;-75
2021/01/14 06:40:05;;;;;;;2.92;0.70;;;16.80;54.30;;;;;;5111269;28;20027;-77
2021/01/14 06:42:33;;;;;;;2.55;1.00;;;16.80;54.20;;;;;;5112083;28;20098;-76
2021/01/14 06:45:08;;;;;;;1.67;0.80;;;16.90;54.30;;;;;;5111842;28;20067;-76
2021/01/14 06:47:34;;;;;;;;;;;;;;;;;;5108483;28;20012;-73
2021/01/14 06:50:16;;;;;;;3.35;1.25;;;;;;;;;;5106015;28;19911;-73
2021/01/14 06:52:42;;;;;;;3.80;1.10;;;;;;;;;;5101163;28;20114;-77
2021/01/14 06:55:09;;;;;;;2.13;0.80;;;;;;;;;;5115075;28;20391;-77
2021/01/14 06:57:40;;;;;;;3.35;0.82;;;;;;;;;;5096698;28;20027;-77
2021/01/14 07:00:06;;;;;;;9.35;1.55;;;;;;;;;;5114639;28;20141;-76
2021/01/14 07:02:35;;;;;;;1.52;1.00;;;;;;;;;;5115077;28;20036;-73
2021/01/14 07:05:02;;;;;;;5.30;0.98;;;;;;;;;;5115177;28;20061;-75
2021/01/14 07:07:28;;;;;;;1.63;1.10;;;;;;;;;;5115988;28;20066;-74
2021/01/14 07:10:07;;;;;;;2.08;0.93;;;;;;;;;;5114257;28;20051;-74
2021/01/14 07:12:35;;;;;;;2.25;0.95;;;;;;;;;;5114988;28;20081;-76
2021/01/14 07:15:08;;;;;;;4.72;1.17;;;;;;;;;;5114748;28;20110;-75
2021/01/14 07:17:37;;;;;;;3.70;1.02;;;;;;;;;;5114778;28;20440;-75
2021/01/14 07:20:05;;;;;;;2.67;1.27;;;;;;;;;;5114551;28;20023;-76
2021/01/14 07:22:33;;;;;;;2.92;0.95;;;;;;;;;;5115200;28;20668;-76
2021/01/14 07:25:02;;;;;;;5.70;1.63;;;;;;;;;;5096638;28;20024;-77
2021/01/14 07:27:29;;;;;;;3.65;1.20;;;;;;;;;;5113773;28;20043;-74
2021/01/14 07:29:58;;;;;;;3.63;1.15;;;;;;;;;;5113969;28;20023;-73
2021/01/14 07:32:43;;;;;;;2.40;1.00;;;;;;;;;;5114013;28;20035;-74
2021/01/14 07:35:29;;;;;;;2.60;1.25;;;;;;;;;;5114264;28;20015;-74
2021/01/14 07:37:55;;;;;;;4.88;1.30;;;;;;;;;;5114399;28;20486;-74
2021/01/14 07:40:30;;;;;;;4.57;1.27;;;;;;;;;;5114715;28;20073;-76
2021/01/14 07:42:58;;;;;;;4.20;1.40;;;;;;;;;;5114268;28;20076;-75
2021/01/14 07:45:24;;;;;;;5.05;1.90;;;;;;;;;;5114374;28;20532;-75
2021/01/14 07:47:50;;;;;;;3.17;1.58;;;;;;;;;;5112178;27;20103;-75
2021/01/14 07:50:27;;;;;;;5.93;2.20;;;17.00;54.40;;;;;;5114141;28;20032;-78
2021/01/14 07:52:57;;;;;;;5.05;1.80;;;18.50;57.10;;;;;;5113615;28;20032;-77
2021/01/14 07:55:36;;;;;;;5.70;2.33;;;18.50;56.70;;;;;;5114991;28;20035;-75
2021/01/14 07:58:23;;;;;;;6.95;3.00;;;18.60;56.70;;;;;;5113566;28;20528;-76
2021/01/14 08:01:00;;;;;;;;;;;18.60;56.40;;;;;;5114810;28;20020;-78
2021/01/14 08:03:30;;;;;;;4.78;2.17;;;18.60;56.30;;;;;;5111516;28;19904;-78
2021/01/14 08:05:56;;;;;;;7.03;2.95;;;18.60;56.30;;;;;;5095779;28;20597;-79
2021/01/14 08:08:35;;;;;;;6.57;2.72;;;18.60;56.20;;;;;;5114162;28;20106;-79
2021/01/14 08:11:19;;;;;;;6.90;2.50;;;18.60;56.30;;;;;;5114419;28;20043;-78
2021/01/14 08:14:14;;;;;;;7.40;2.70;;;18.60;56.20;;;;;;5112946;28;20119;-78
2021/01/14 08:16:48;;;;;;;5.13;2.53;;;18.70;56.20;;;;;;5111245;28;20040;-76
2021/01/14 08:19:36;;;;;;;11.63;3.40;;;18.70;56.30;;;;;;5103166;28;20054;-82
2021/01/14 08:22:07;;;;;;;8.32;2.50;;;18.70;56.30;;;;;;5106717;28;20081;-76
2021/01/14 08:24:38;;;;;;;6.32;2.65;;;18.70;56.10;;;;;;5102299;28;20028;-76
2021/01/14 08:27:24;;;;;;;7.13;2.33;;;18.70;56.10;;;;;;5112743;28;20401;-79
2021/01/14 08:30:11;;;;;;;6.13;2.47;;;18.70;56.80;;;;;;5078299;28;20123;-76
2021/01/14 08:32:41;;;;;;;10.10;2.92;;;18.70;56.80;;;;;;5113838;28;20391;-81
2021/01/14 08:35:14;;;;;;;8.45;3.35;;;18.70;56.80;;;;;;5113891;28;20111;-79
2021/01/14 08:37:49;;;;;;;8.27;3.22;;;18.70;56.80;;;;;;5112863;28;20032;-78
2021/01/14 08:40:24;;;;;;;8.65;3.00;;;18.70;56.80;;;;;;5113882;28;20103;-78
2021/01/14 08:43:18;;;;;;;6.03;2.90;;;18.70;56.80;;;;;;5113415;28;20055;-80
2021/01/14 08:45:45;;;;;;;10.48;3.20;;;18.80;56.70;;;;;;5093459;28;20016;-79
2021/01/14 08:48:24;;;;;;;10.05;4.00;;;18.80;56.70;;;;;;5112653;28;20027;-79
2021/01/14 08:51:03;;;;;;;9.40;4.13;;;18.80;56.60;;;;;;5113177;28;20027;-84
2021/01/14 08:53:38;;;;;;;10.30;3.25;;;18.80;56.50;;;;;;5114471;28;20016;-83
2021/01/14 08:56:09;;;;;;;8.57;3.22;;;18.80;56.50;;;;;;5113384;27;20031;-80
2021/01/14 08:58:43;;;;;;;10.40;2.90;;;18.90;56.50;;;;;;5110257;28;20039;-89
2021/01/14 09:01:16;;;;;;;9.73;3.47;;;18.90;56.50;;;;;;5091665;28;20020;-81
2021/01/14 09:03:42;;;;;;;12.50;3.40;;;18.90;56.60;;;;;;5111363;28;20479;-83
2021/01/14 09:06:08;;;;;;;6.85;3.00;;;18.90;56.70;;;;;;5113796;28;20047;-83
2021/01/14 09:08:34;;;;;;;12.15;3.10;;;18.90;56.90;;;;;;5113107;28;20027;-82
2021/01/14 09:11:00;;;;;;;8.02;2.88;;;18.90;57.00;;;;;;5112495;28;20040;-82
2021/01/14 09:13:33;;;;;;;8.32;3.50;;;18.90;57.10;;;;;;5108729;28;20073;-82
2021/01/14 09:16:10;;;;;;;9.00;2.88;;;18.90;57.10;;;;;;5112737;28;20016;-81
2021/01/14 09:18:42;;;;;;;5.78;2.72;;;19.00;57.30;;;;;;5112619;28;20051;-82
2021/01/14 09:21:11;;;;;;;7.35;2.95;;;19.00;57.30;;;;;;5104827;28;20034;-80
2021/01/14 09:23:38;;;;;;;7.65;2.70;;;19.00;57.30;;;;;;5111936;28;20072;-88
2021/01/14 09:26:11;;;;;;;8.05;2.92;;;19.00;57.40;;;;;;5094754;28;20513;-82
2021/01/14 09:28:37;;;;;;;7.88;2.47;;;19.00;57.40;;;;;;5112509;28;20020;-82
2021/01/14 09:31:05;;;;;;;6.55;2.78;;;19.10;57.60;;;;;;5102268;28;20027;-85
2021/01/14 09:33:37;;;;;;;8.18;2.45;;;19.10;58.00;;;;;;5090237;28;20031;-86
2021/01/14 09:36:19;;;;;;;7.10;2.70;;;19.10;58.00;;;;;;5113077;28;20080;-80
2021/01/14 09:39:09;;;;;;;5.80;2.53;;;19.10;58.10;;;;;;5112270;27;20055;-78
2021/01/14 09:41:37;;;;;;;6.07;2.03;;;19.20;58.20;;;;;;5099300;28;20598;-79
2021/01/14 09:44:15;;;;;;;6.38;2.33;;;19.20;58.20;;;;;;5112604;28;20502;-80
2021/01/14 09:46:43;;;;;;;7.45;2.85;;;19.20;58.00;;;;;;5110285;28;20034;-79
2021/01/14 09:49:11;;;;;;;5.15;2.40;;;19.20;58.10;;;;;;5104104;28;20024;-81
2021/01/14 09:51:42;;;;;;;9.73;2.03;;;19.20;58.30;;;;;;5105635;27;20065;-79
2021/01/14 09:54:09;;;;;;;5.55;2.08;;;19.20;58.20;;;;;;5107369;28;20403;-79
2021/01/14 09:56:38;;;;;;;5.30;2.08;;;19.30;58.10;;;;;;5112668;28;20056;-80
2021/01/14 09:59:22;;;;;;;3.80;2.05;;;19.30;58.00;;;;;;5113083;28;20031;-79
2021/01/14 10:02:16;;;;;;;7.03;2.28;;;19.30;58.10;;;;;;5093413;28;20495;-78
2021/01/14 10:04:45;;;;;;;5.45;2.20;;;19.30;58.00;;;;;;5110110;28;20052;-79
2021/01/14 10:07:21;;;;;;;5.95;2.40;;;19.20;58.00;;;;;;5101395;28;20024;-78
2021/01/14 10:09:51;;;;;;;3.72;1.88;;;19.20;58.00;;;;;;5091538;28;20484;-77
2021/01/14 10:12:16;;;;;;;7.10;3.00;;;19.30;57.90;;;;;;5097489;28;20570;-79
2021/01/14 10:14:42;;;;;;;4.28;2.42;;;19.30;57.90;;;;;;5095469;28;20111;-79
2021/01/14 10:17:16;;;;;;;4.15;2.63;;;19.30;57.90;;;;;;5091428;28;20024;-83
2021/01/14 10:19:48;;;;;;;5.95;2.90;;;19.30;57.80;;;;;;5091161;28;20047;-78
2021/01/14 10:22:14;;;;;;;4.70;2.63;;;19.30;57.70;;;;;;5091499;28;20024;-76
2021/01/14 10:24:40;;;;;;;7.13;3.47;;;19.30;57.70;;;;;;5091123;28;20377;-79
2021/01/14 10:27:17;;;;;;;6.20;2.97;;;19.40;57.70;;;;;;5098879;28;20101;-75
2021/01/14 10:29:44;;;;;;;7.13;2.60;;;19.40;57.50;;;;;;5091169;28;20028;-79
2021/01/14 10:32:22;;;;;;;4.88;2.83;;;19.50;57.50;;;;;;5093397;28;21643;-78
2021/01/14 10:34:53;;;;;;;4.30;2.47;;;19.40;57.40;;;;;;5109730;28;20103;-81
2021/01/14 10:37:26;;;;;;;5.03;2.78;;;19.50;57.30;;;;;;5111087;28;20031;-80
2021/01/14 10:39:57;;;;;;;4.70;2.70;;;19.50;57.50;;;;;;5111581;28;20026;-82
2021/01/14 10:42:26;;;;;;;5.20;2.88;;;19.50;57.50;;;;;;5095342;28;20040;-83
2021/01/14 10:44:53;;;;;;;6.65;3.00;;;19.50;57.50;;;;;;5091253;28;20039;-84
2021/01/14 10:47:22;;;;;;;4.60;2.33;;;19.50;57.50;;;;;;5091354;28;20028;-87
2021/01/14 10:49:47;;;;;;;5.13;2.47;;;19.50;57.50;;;;;;5073823;28;20036;-82
2021/01/14 10:52:13;;;;;;;5.50;2.38;;;19.50;57.50;;;;;;5104445;28;20089;-85
2021/01/14 10:54:38;;;;;;;6.85;2.85;;;19.50;57.50;;;;;;5092999;28;20024;-82
2021/01/14 10:57:04;;;;;;;4.60;1.98;;;19.50;57.50;;;;;;5111088;28;20072;-85
2021/01/14 10:59:31;;;;;;;5.50;1.98;;;19.50;57.50;;;;;;5112287;28;20092;-79
2021/01/14 11:02:04;;;;;;;8.25;2.95;;;19.50;57.50;;;;;;5126601;28;20076;-79
2021/01/14 11:04:30;;;;;;;5.75;2.45;;;19.60;57.40;;;;;;5092095;28;20520;-82
2021/01/14 11:06:56;;;;;;;4.90;2.67;;;19.60;57.10;;;;;;5090902;28;20104;-81
2021/01/14 11:09:21;;;;;;;5.90;2.78;;;19.60;56.80;;;;;;5091029;28;20484;-82
2021/01/14 11:11:47;;;;;;;5.40;2.58;;;19.60;56.70;;;;;;5091832;28;20484;-88
2021/01/14 11:14:17;;;;;;;5.20;2.13;;;19.60;56.60;;;;;;5112484;28;20479;-81
2021/01/14 11:16:42;;;;;;;5.72;2.80;;;19.60;56.50;;;;;;5119966;28;20023;-84
2021/01/14 11:19:10;;;;;;;5.82;3.03;;;19.70;56.40;;;;;;5131768;28;20592;-85
2021/01/14 11:21:37;;;;;;;6.28;2.88;;;19.70;56.50;;;;;;5131691;28;20063;-80
2021/01/14 11:24:03;;;;;;;8.20;2.75;;;19.70;56.30;;;;;;5120359;28;20120;-83
2021/01/14 11:26:29;;;;;;;8.00;3.40;;;19.70;56.10;;;;;;5073061;28;20126;-79
2021/01/14 11:28:55;;;;;;;6.63;2.95;;;19.70;56.10;;;;;;5090401;28;20482;-79
2021/01/14 11:31:22;;;;;;;8.25;2.70;;;19.70;55.90;;;;;;5090819;28;20479;-81
2021/01/14 11:33:49;;;;;;;5.10;2.75;;;19.70;55.70;;;;;;5093745;28;20110;-84
2021/01/14 11:36:17;;;;;;;5.38;2.53;;;19.80;55.80;;;;;;5092779;28;20484;-80
2021/01/14 11:38:43;;;;;;;7.57;3.30;;;19.70;55.60;;;;;;5111620;28;20028;-77
2021/01/14 11:41:09;;;;;;;6.60;2.85;;;19.70;55.50;;;;;;5114994;28;20077;-78
2021/01/14 11:43:36;;;;;;;7.40;3.00;;;19.80;55.40;;;;;;5114892;28;20062;-80
2021/01/14 11:46:02;;;;;;;7.47;2.88;;;19.80;55.40;;;;;;5113014;28;20030;-78
2021/01/14 11:48:28;;;;;;;10.55;3.35;;;19.80;55.40;;;;;;5115325;28;20081;-76
2021/01/14 11:50:53;;;;;;;9.40;4.07;;;19.80;55.30;;;;;;5096268;28;20039;-78
2021/01/14 11:53:19;;;;;;;9.88;4.30;;;19.80;54.50;;;;;;5114656;28;20077;-77
2021/01/14 11:55:45;;;;;;;8.85;4.18;;;19.70;54.40;;;;;;5111357;28;20465;-76
2021/01/14 11:58:11;;;;;;;9.02;4.53;;;19.70;54.20;;;;;;5120152;27;20030;-79
2021/01/14 12:00:36;;;;;;;6.97;3.85;;;19.70;54.20;;;;;;5113974;27;20087;-78
2021/01/14 12:03:05;;;;;;;9.00;4.03;;;19.70;54.60;;;;;;5115081;28;20051;-78
2021/01/14 12:05:31;;;;;;;9.75;4.50;;;19.70;54.60;;;;;;5114821;28;20111;-78
2021/01/14 12:07:57;;;;;;;7.28;4.20;;;19.70;54.60;;;;;;5114497;28;20144;-78
2021/01/14 12:10:22;;;;;;;9.63;4.85;;;19.70;54.60;;;;;;5114309;28;20110;-79
2021/01/14 12:12:48;;;;;;;14.57;5.05;;;19.70;54.60;;;;;;5113476;28;20483;-76
2021/01/14 12:15:14;;;;;;;9.73;4.70;;;19.70;54.40;;;;;;5113828;28;20023;-73
2021/01/14 12:17:39;;;;;;;12.40;5.53;;;19.70;53.50;;;;;;5113914;28;20024;-76
2021/01/14 12:20:05;;;;;;;11.82;6.05;;;19.70;54.10;;;;;;5113535;28;20051;-74
2021/01/14 12:22:33;;;;;;;12.38;5.78;;;19.70;54.20;;;;;;5113417;28;20038;-77
2021/01/14 12:24:59;;;;;;;12.32;5.97;;;19.70;54.20;;;;;;5114147;28;20107;-82
2021/01/14 12:27:25;;;;;;;10.80;5.28;;;19.70;54.40;;;;;;5113857;28;20099;-75
2021/01/14 12:29:50;;;;;;;11.70;6.18;;;19.80;54.40;;;;;;5113539;28;20514;-73
2021/01/14 12:32:16;;;;;;;12.90;6.00;;;19.70;54.50;;;;;;5113832;28;20039;-75
2021/01/14 12:34:42;;;;;;;13.35;5.38;;;19.70;54.60;;;;;;5113763;28;20024;-75
2021/01/14 12:37:08;;;;;;;10.23;5.30;;;19.70;54.30;;;;;;5112781;28;20032;-79
2021/01/14 12:39:33;;;;;;;11.18;5.97;;;19.70;54.20;;;;;;5113388;28;20421;-78
2021/01/14 12:41:59;;;;;;;12.40;6.28;;;19.70;54.80;;;;;;5113510;28;20034;-77
2021/01/14 12:44:25;;;;;;;9.80;4.82;;;19.80;54.20;;;;;;5113544;28;20030;-76
2021/01/14 12:46:50;;;;;;;11.57;5.45;;;19.80;54.20;;;;;;5113343;28;20526;-77
2021/01/14 12:49:18;;;;;;;16.13;5.63;;;19.70;54.30;;;;;;5111924;28;20054;-78
2021/01/14 12:51:45;;;;;;;11.80;5.35;;;19.80;54.30;;;;;;5113221;28;20105;-76
2021/01/14 12:54:11;;;;;;;11.93;5.35;;;19.80;54.60;;;;;;5112880;28;20068;-76
2021/01/14 12:56:37;;;;;;;11.07;5.88;;;19.80;54.90;;;;;;5112379;28;20043;-76
2021/01/14 12:59:03;;;;;;;10.10;5.32;;;19.90;55.00;;;;;;5112984;28;20035;-76
2021/01/14 13:01:30;;;;;;;12.07;5.50;;;19.90;55.20;;;;;;5112660;28;20020;-76
2021/01/14 13:03:57;;;;;;;12.65;4.95;;;19.90;55.30;;;;;;5112449;28;20027;-76
2021/01/14 13:06:28;;;;;;;11.75;5.40;;;19.90;55.30;;;;;;5112711;28;20035;-77